createdAt,value
2019-05-10T00:01:27.226Z,12.66
2019-05-10T00:03:53.857Z,12.91
2019-05-10T00:06:20.650Z,12.90
2019-05-10T00:08:47.384Z,12.83
2019-05-10T00:11:14.134Z,12.91
2019-05-10T00:13:41.001Z,13.02
2019-05-10T00:16:07.818Z,13.20
2019-05-10T00:18:34.659Z,13.26
2019-05-10T00:21:01.335Z,13.18
2019-05-10T00:23:28.037Z,12.88
2019-05-10T00:25:55.029Z,12.69
2019-05-10T00:28:21.598Z,12.51
2019-05-10T00:30:50.890Z,12.49
2019-05-10T00:33:17.717Z,12.40
2019-05-10T00:35:44.281Z,12.48
2019-05-10T00:38:11.141Z,12.51
2019-05-10T00:40:37.948Z,12.62
2019-05-10T00:43:05.002Z,12.74
2019-05-10T00:45:32.098Z,12.73
2019-05-10T00:47:58.730Z,12.87
2019-05-10T00:50:25.319Z,12.84
2019-05-10T00:52:52.064Z,12.95
2019-05-10T00:55:19.546Z,12.79
2019-05-10T00:57:46.782Z,12.83
2019-05-10T01:00:13.378Z,12.59
2019-05-10T01:02:40.068Z,12.59
2019-05-10T01:05:06.738Z,12.53
2019-05-10T01:07:33.607Z,12.62
2019-05-10T01:10:00.830Z,12.80
2019-05-10T01:12:29.064Z,12.81
2019-05-10T01:14:55.854Z,12.68
2019-05-10T01:17:25.433Z,12.19
2019-05-10T01:19:52.032Z,12.15
2019-05-10T01:22:18.649Z,12.30
2019-05-10T01:24:46.237Z,12.50
2019-05-10T01:27:12.942Z,12.42
2019-05-10T01:29:39.809Z,12.23
2019-05-10T01:32:06.416Z,12.22
2019-05-10T01:34:33.114Z,12.21
2019-05-10T01:37:00.718Z,12.21
2019-05-10T01:39:28.340Z,12.23
2019-05-10T01:41:55.072Z,12.29
2019-05-10T01:44:21.698Z,12.31
2019-05-10T01:46:49.054Z,12.11
2019-05-10T01:49:15.664Z,12.00
2019-05-10T01:51:43.346Z,12.02
2019-05-10T01:54:10.032Z,12.00
2019-05-10T01:56:36.875Z,11.83
2019-05-10T01:59:04.638Z,11.71
2019-05-10T02:01:31.285Z,11.79
2019-05-10T02:03:57.996Z,11.88
2019-05-10T02:06:24.915Z,11.90
2019-05-10T02:08:51.549Z,12.09
2019-05-10T02:11:18.419Z,12.12
2019-05-10T02:13:45.033Z,12.10
2019-05-10T02:16:11.682Z,11.91
2019-05-10T02:18:38.282Z,11.63
2019-05-10T02:21:04.909Z,11.67
2019-05-10T02:23:31.850Z,11.87
2019-05-10T02:26:08.858Z,11.89
2019-05-10T02:28:26.890Z,11.71
2019-05-10T02:30:53.514Z,11.44
2019-05-10T02:33:21.283Z,11.42
2019-05-10T02:35:48.892Z,11.42
2019-05-10T02:38:15.738Z,11.61
2019-05-10T02:40:42.678Z,11.55
2019-05-10T02:43:09.264Z,11.39
2019-05-10T02:45:35.996Z,11.51
2019-05-10T02:48:04.911Z,11.50
2019-05-10T02:50:32.675Z,11.66
2019-05-10T02:53:02.554Z,11.71
2019-05-10T02:55:29.234Z,11.78
2019-05-10T02:58:00.364Z,11.75
2019-05-10T03:08:35.791Z,11.59
2019-05-10T03:11:03.406Z,11.61
2019-05-10T03:13:30.895Z,11.89
2019-05-10T03:15:58.785Z,12.04
2019-05-10T03:18:29.853Z,11.96
2019-05-10T03:20:57.109Z,11.51
2019-05-10T03:23:24.714Z,11.53
2019-05-10T03:25:52.603Z,11.51
2019-05-10T03:28:24.875Z,11.55
2019-05-10T03:30:55.867Z,11.52
2019-05-10T03:33:26.796Z,11.57
2019-05-10T03:35:55.992Z,11.22
2019-05-10T03:38:23.847Z,11.42
2019-05-10T03:41:04.933Z,11.46
2019-05-10T03:43:31.968Z,11.39
2019-05-10T03:45:59.972Z,11.42
2019-05-10T03:48:27.557Z,11.30
2019-05-10T03:50:57.432Z,11.37
2019-05-10T03:53:25.535Z,11.48
2019-05-10T03:55:53.459Z,11.44
2019-05-10T03:58:23.467Z,11.36
2019-05-10T04:00:51.342Z,11.43
2019-05-10T04:03:22.074Z,11.48
2019-05-10T04:05:51.428Z,11.58
2019-05-10T04:08:22.494Z,11.60
2019-05-10T04:10:52.436Z,11.72
2019-05-10T04:13:23.144Z,12.09
2019-05-10T04:16:08.108Z,12.71
2019-05-10T04:18:25.415Z,13.52
2019-05-10T04:21:01.562Z,14.11
2019-05-10T04:23:32.760Z,14.30
2019-05-10T04:26:00.635Z,14.28
2019-05-10T04:28:28.441Z,14.49
2019-05-10T04:30:57.521Z,14.67
2019-05-10T04:33:25.331Z,14.66
2019-05-10T04:35:52.834Z,14.69
2019-05-10T04:38:22.446Z,14.56
2019-05-10T04:40:49.111Z,14.68
2019-05-10T04:43:18.751Z,14.82
2019-05-10T04:45:45.366Z,14.76
2019-05-10T04:48:12.289Z,14.97
2019-05-10T04:50:38.924Z,15.15
2019-05-10T04:53:07.218Z,15.44
2019-05-10T04:55:34.184Z,15.43
2019-05-10T04:58:01.506Z,15.25
2019-05-10T05:00:28.469Z,15.27
2019-05-10T05:02:55.116Z,15.53
2019-05-10T05:05:21.797Z,15.93
2019-05-10T05:07:48.386Z,16.36
2019-05-10T05:10:15.254Z,16.58
2019-05-10T05:12:41.860Z,16.84
2019-05-10T05:15:08.449Z,16.93
2019-05-10T05:17:35.049Z,17.08
2019-05-10T05:20:14.495Z,17.33
2019-05-10T05:22:31.833Z,17.61
2019-05-10T05:25:01.267Z,17.77
2019-05-10T05:27:27.032Z,17.72
2019-05-10T05:29:55.015Z,17.68
2019-05-10T05:32:28.860Z,17.91
2019-05-10T05:34:55.528Z,17.90
2019-05-10T05:37:22.329Z,17.90
2019-05-10T05:39:50.186Z,18.09
2019-05-10T05:42:22.121Z,18.14
2019-05-10T05:44:45.308Z,18.20
2019-05-10T05:47:14.384Z,18.33
2019-05-10T05:49:40.993Z,18.52
2019-05-10T05:52:07.577Z,18.70
2019-05-10T05:54:34.442Z,18.91
2019-05-10T05:57:01.214Z,18.75
2019-05-10T05:59:28.078Z,18.81
2019-05-10T06:02:00.478Z,19.06
2019-05-10T06:04:23.219Z,19.35
2019-05-10T06:06:53.688Z,19.42
2019-05-10T06:12:07.494Z,19.75
2019-05-10T06:14:31.016Z,19.60
2019-05-10T06:16:57.596Z,19.71
2019-05-10T06:19:29.328Z,19.73
2019-05-10T06:21:58.013Z,19.90
2019-05-10T06:24:21.116Z,19.74
2019-05-10T06:26:51.758Z,19.66
2019-05-10T06:29:19.868Z,19.74
2019-05-10T06:31:46.678Z,19.99
2019-05-10T06:34:13.694Z,20.13
2019-05-10T06:36:40.603Z,20.37
2019-05-10T06:39:07.484Z,20.57
2019-05-10T06:41:34.149Z,20.38
2019-05-10T06:44:02.289Z,20.43
2019-05-10T06:46:30.965Z,20.54
2019-05-10T06:49:07.304Z,20.71
2019-05-10T06:51:25.971Z,20.80
2019-05-10T06:53:53.977Z,20.89
2019-05-10T06:56:21.168Z,20.88
2019-05-10T06:58:51.161Z,21.14
2019-05-10T07:01:21.027Z,21.03
2019-05-10T07:03:57.348Z,21.10
2019-05-10T07:06:27.036Z,21.23
2019-05-10T07:08:58.073Z,21.48
2019-05-10T07:11:23.553Z,21.84
2019-05-10T07:14:04.093Z,21.87
2019-05-10T07:16:25.767Z,21.94
2019-05-10T07:18:54.737Z,22.09
2019-05-10T07:21:19.332Z,22.07
2019-05-10T07:23:49.063Z,22.29
2019-05-10T07:26:23.539Z,22.35
2019-05-10T07:28:44.256Z,22.40
2019-05-10T07:31:11.238Z,22.30
2019-05-10T07:33:40.127Z,22.42
2019-05-10T07:36:14.394Z,22.65
2019-05-10T07:38:35.354Z,22.36
2019-05-10T07:41:02.409Z,22.33
2019-05-10T07:43:31.621Z,22.35
2019-05-10T07:46:06.218Z,22.45
2019-05-10T07:48:29.319Z,22.58
2019-05-10T07:50:57.366Z,22.69
2019-05-10T07:53:25.294Z,23.02
2019-05-10T07:55:59.903Z,22.99
2019-05-10T07:58:23.399Z,22.99
2019-05-10T08:00:49.979Z,23.03
2019-05-10T08:03:23.336Z,22.93
2019-05-10T08:05:51.044Z,22.54
2019-05-10T08:08:14.249Z,22.35
2019-05-10T08:10:40.855Z,22.49
2019-05-10T08:13:08.421Z,22.29
2019-05-10T08:15:35.332Z,22.50
2019-05-10T08:18:02.008Z,22.68
2019-05-10T08:20:45.344Z,22.74
2019-05-10T08:22:57.371Z,22.85
2019-05-10T08:25:29.077Z,23.03
2019-05-10T08:27:55.263Z,23.24
2019-05-10T08:30:28.822Z,23.55
2019-05-10T08:32:49.220Z,23.80
2019-05-10T08:35:18.723Z,23.80
2019-05-10T08:37:45.067Z,23.97
2019-05-10T08:40:12.829Z,24.00
2019-05-10T08:42:45.400Z,24.21
2019-05-10T08:45:08.962Z,24.23
2019-05-10T08:47:38.318Z,24.12
2019-05-10T08:50:19.847Z,24.20
2019-05-10T08:52:34.001Z,24.42
2019-05-10T08:55:02.697Z,24.81
2019-05-10T09:00:17.736Z,24.96
2019-05-10T09:02:47.051Z,24.70
2019-05-10T09:05:13.929Z,24.81
2019-05-10T09:07:45.451Z,25.17
2019-05-10T09:10:21.947Z,25.43
2019-05-10T09:12:57.949Z,25.52
2019-05-10T09:15:25.060Z,25.36
2019-05-10T09:17:52.767Z,25.44
2019-05-10T09:20:26.777Z,25.70
2019-05-10T09:22:52.848Z,25.90
2019-05-10T09:25:20.239Z,26.00
2019-05-10T09:27:52.923Z,26.06
2019-05-10T09:30:25.790Z,25.93
2019-05-10T09:32:51.933Z,26.10
2019-05-10T09:35:18.382Z,26.34
2019-05-10T09:37:47.706Z,26.61
2019-05-10T09:40:42.547Z,26.93
2019-05-10T09:43:14.417Z,26.75
2019-05-10T09:45:42.382Z,26.55
2019-05-10T09:48:11.882Z,26.95
2019-05-10T09:50:44.313Z,27.34
2019-05-10T09:53:10.421Z,27.41
2019-05-10T09:55:38.671Z,27.61
2019-05-10T09:58:08.501Z,27.66
2019-05-10T10:00:38.264Z,27.52
2019-05-10T10:03:07.948Z,27.68
2019-05-10T10:05:39.923Z,27.83
2019-05-10T10:08:09.260Z,27.61
2019-05-10T10:10:38.676Z,27.12
2019-05-10T10:13:13.457Z,27.41
2019-05-10T10:15:39.328Z,27.48
2019-05-10T10:18:07.224Z,27.08
2019-05-10T10:20:35.945Z,27.45
2019-05-10T10:23:07.433Z,27.89
2019-05-10T10:25:35.211Z,27.97
2019-05-10T10:28:08.227Z,28.35
2019-05-10T10:30:34.402Z,27.88
2019-05-10T10:33:05.641Z,27.23
2019-05-10T10:35:31.612Z,27.21
2019-05-10T10:38:07.938Z,27.76
2019-05-10T10:40:35.491Z,28.45
2019-05-10T10:43:02.436Z,28.31
2019-05-10T10:45:29.301Z,28.02
2019-05-10T10:47:57.327Z,27.72
2019-05-10T10:50:24.335Z,27.47
2019-05-10T10:52:51.272Z,27.51
2019-05-10T10:55:18.716Z,27.51
2019-05-10T10:57:48.185Z,27.60
2019-05-10T11:00:20.251Z,27.94
2019-05-10T11:02:46.925Z,28.01
2019-05-10T11:05:12.486Z,27.72
2019-05-10T11:07:47.307Z,27.97
2019-05-10T11:10:18.033Z,28.12
2019-05-10T11:12:41.305Z,28.31
2019-05-10T11:15:07.706Z,28.35
2019-05-10T11:17:34.566Z,28.18
2019-05-10T11:20:01.465Z,28.21
2019-05-10T11:22:28.297Z,28.15
2019-05-10T11:25:03.025Z,27.54
2019-05-10T11:27:23.916Z,27.89
2019-05-10T11:29:54.872Z,27.81
2019-05-10T11:32:21.143Z,28.14
2019-05-10T11:34:47.456Z,28.68
2019-05-10T11:37:15.971Z,28.74
2019-05-10T11:39:46.926Z,28.64
2019-05-10T11:42:15.486Z,29.01
2019-05-10T11:44:49.787Z,29.29
2019-05-10T11:47:24.004Z,29.61
2019-05-10T11:49:41.951Z,29.85
2019-05-10T11:52:10.809Z,29.80
2019-05-10T11:54:37.792Z,29.58
2019-05-10T11:57:12.836Z,29.34
2019-05-10T11:59:51.478Z,29.34
2019-05-10T12:04:46.499Z,28.51
2019-05-10T12:07:13.391Z,27.82
2019-05-10T12:09:42.559Z,27.40
2019-05-10T12:12:12.238Z,26.96
2019-05-10T12:14:43.762Z,26.46
2019-05-10T12:17:13.842Z,26.32
2019-05-10T12:19:47.792Z,26.63
2019-05-10T12:22:15.405Z,26.81
2019-05-10T12:24:52.492Z,26.87
2019-05-10T12:26:06.014Z,28.92
2019-05-10T12:27:21.894Z,26.82
2019-05-10T12:29:41.152Z,26.54
2019-05-10T12:32:10.374Z,26.19
2019-05-10T12:34:40.864Z,26.55
2019-05-10T12:37:12.270Z,27.15
2019-05-10T12:39:45.625Z,27.04
2019-05-10T12:42:14.333Z,26.41
2019-05-10T12:44:46.293Z,26.22
2019-05-10T12:47:14.678Z,26.33
2019-05-10T12:49:44.174Z,26.36
2019-05-10T12:52:16.025Z,26.14
2019-05-10T12:54:43.406Z,25.44
2019-05-10T12:57:13.562Z,24.80
2019-05-10T12:59:42.754Z,24.60
2019-05-10T13:02:44.702Z,23.68
2019-05-10T13:04:52.436Z,23.22
2019-05-10T13:07:18.811Z,22.68
2019-05-10T13:09:50.553Z,22.09
2019-05-10T13:12:17.676Z,21.43
2019-05-10T13:14:46.105Z,21.67
2019-05-10T13:17:16.752Z,21.89
2019-05-10T13:19:41.851Z,22.09
2019-05-10T13:22:08.472Z,22.62
2019-05-10T13:24:35.504Z,22.95
2019-05-10T13:27:03.609Z,23.18
2019-05-10T13:29:30.338Z,23.11
2019-05-10T13:31:57.214Z,22.94
2019-05-10T13:34:24.586Z,22.82
2019-05-10T13:36:51.512Z,22.82
2019-05-10T13:39:19.179Z,22.93
2019-05-10T13:41:46.773Z,22.94
2019-05-10T13:44:14.395Z,22.85
2019-05-10T13:46:41.285Z,23.10
2019-05-10T13:49:08.211Z,23.48
2019-05-10T13:51:34.796Z,23.84
2019-05-10T13:54:04.648Z,24.21
2019-05-10T13:56:30.282Z,24.88
2019-05-10T13:58:57.139Z,25.01
2019-05-10T14:01:24.087Z,25.12
2019-05-10T14:03:59.989Z,25.13
2019-05-10T14:06:19.561Z,25.23
2019-05-10T14:08:48.373Z,25.39
2019-05-10T14:11:15.316Z,25.19
2019-05-10T14:13:43.266Z,25.27
2019-05-10T14:16:18.146Z,25.71
2019-05-10T14:18:38.962Z,25.95
2019-05-10T14:21:05.981Z,25.64
2019-05-10T14:23:35.189Z,26.05
2019-05-10T14:26:01.446Z,26.22
2019-05-10T14:28:28.223Z,26.23
2019-05-10T14:30:57.343Z,26.77
2019-05-10T14:33:23.787Z,26.76
2019-05-10T14:35:55.179Z,26.52
2019-05-10T14:38:22.734Z,26.30
2019-05-10T14:40:48.122Z,25.96
2019-05-10T14:43:14.974Z,25.88
2019-05-10T14:45:44.077Z,25.74
2019-05-10T14:48:10.963Z,25.70
2019-05-10T14:50:37.817Z,25.49
2019-05-10T14:53:04.811Z,25.15
2019-05-10T14:55:34.648Z,25.21
2019-05-10T14:58:00.270Z,25.43
2019-05-10T15:00:27.609Z,25.49
2019-05-10T15:02:56.761Z,25.65
2019-05-10T15:05:23.143Z,25.74
2019-05-10T15:07:51.152Z,25.63
2019-05-10T15:10:18.454Z,25.45
2019-05-10T15:12:45.309Z,25.08
2019-05-10T15:15:12.665Z,24.59
2019-05-10T15:17:39.529Z,24.70
2019-05-10T15:20:06.127Z,24.79
2019-05-10T15:22:32.791Z,24.92
2019-05-10T15:24:59.661Z,25.05
2019-05-10T15:27:26.549Z,25.00
2019-05-10T15:29:58.653Z,25.18
2019-05-10T15:32:22.064Z,25.15
2019-05-10T15:35:05.093Z,25.10
2019-05-10T15:37:17.930Z,24.83
2019-05-10T15:39:44.890Z,24.79
2019-05-10T15:42:11.765Z,24.47
2019-05-10T15:44:38.699Z,24.28
2019-05-10T15:47:05.548Z,24.36
2019-05-10T15:49:32.470Z,24.36
2019-05-10T15:52:16.358Z,24.34
2019-05-10T15:54:28.107Z,24.31
2019-05-10T15:56:55.701Z,24.26
2019-05-10T15:59:23.111Z,24.25
2019-05-10T16:01:49.704Z,24.25
2019-05-10T16:04:16.594Z,24.19
2019-05-10T16:06:43.923Z,23.63
2019-05-10T16:09:17.308Z,23.16
2019-05-10T16:11:39.428Z,22.76
2019-05-10T16:14:06.425Z,22.40
2019-05-10T16:16:37.223Z,22.48
2019-05-10T16:19:01.928Z,22.10
2019-05-10T16:21:28.809Z,21.93
2019-05-10T16:23:55.702Z,22.14
2019-05-10T16:26:24.463Z,22.35
2019-05-10T16:28:53.213Z,22.72
2019-05-10T16:31:19.545Z,22.65
2019-05-10T16:33:48.393Z,22.53
2019-05-10T16:36:15.082Z,22.58
2019-05-10T16:38:41.679Z,22.62
2019-05-10T16:41:08.920Z,22.47
2019-05-10T16:43:36.377Z,22.24
2019-05-10T16:46:03.084Z,22.48
2019-05-10T16:48:29.647Z,22.91
2019-05-10T16:50:56.562Z,23.11
2019-05-10T16:53:23.408Z,22.61
2019-05-10T16:55:50.316Z,22.77
2019-05-10T16:58:18.002Z,23.23
2019-05-10T17:00:46.338Z,23.18
2019-05-10T17:03:18.286Z,23.38
2019-05-10T17:05:53.066Z,22.98
2019-05-10T17:08:10.804Z,23.00
2019-05-10T17:10:37.294Z,23.23
2019-05-10T17:13:05.118Z,22.95
2019-05-10T17:15:34.065Z,22.35
2019-05-10T17:18:01.453Z,22.26
2019-05-10T17:20:28.080Z,22.30
2019-05-10T17:22:54.975Z,22.29
2019-05-10T17:25:22.684Z,22.27
2019-05-10T17:27:50.768Z,22.19
2019-05-10T17:30:21.995Z,22.26
2019-05-10T17:32:46.418Z,22.22
2019-05-10T17:35:13.152Z,22.08
2019-05-10T17:37:39.988Z,22.14
2019-05-10T17:40:10.152Z,22.27
2019-05-10T17:42:41.138Z,22.15
2019-05-10T17:45:04.637Z,22.07
2019-05-10T17:47:32.232Z,22.08
2019-05-10T17:50:00.468Z,22.11
2019-05-10T17:52:27.984Z,22.16
2019-05-10T17:54:54.765Z,22.06
2019-05-10T17:57:21.385Z,21.89
2019-05-10T17:59:52.774Z,21.62
2019-05-10T18:02:16.582Z,21.56
2019-05-10T18:04:43.278Z,21.30
2019-05-10T18:07:09.939Z,21.13
2019-05-10T18:09:36.871Z,21.07
2019-05-10T18:12:03.495Z,20.90
2019-05-10T18:14:30.437Z,20.75
2019-05-10T18:16:56.996Z,20.66
2019-05-10T18:19:26.470Z,20.72
2019-05-10T18:21:55.059Z,20.64
2019-05-10T18:24:20.324Z,20.63
2019-05-10T18:26:46.968Z,20.50
2019-05-10T18:29:13.870Z,20.49
2019-05-10T18:31:40.631Z,20.38
2019-05-10T18:34:07.240Z,20.26
2019-05-10T18:36:50.959Z,20.11
2019-05-10T18:39:02.730Z,20.08
2019-05-10T18:41:29.627Z,20.04
2019-05-10T18:44:01.023Z,19.99
2019-05-10T18:49:17.970Z,20.07
2019-05-10T18:51:45.092Z,20.08
2019-05-10T18:54:11.678Z,20.02
2019-05-10T18:56:39.617Z,19.94
2019-05-10T18:59:07.549Z,19.87
2019-05-10T19:01:38.701Z,19.77
2019-05-10T19:04:15.863Z,19.62
2019-05-10T19:06:49.755Z,19.37
2019-05-10T19:09:14.665Z,19.27
2019-05-10T19:11:41.597Z,19.14
2019-05-10T19:14:11.395Z,19.00
2019-05-10T19:16:40.821Z,18.96
2019-05-10T19:19:16.425Z,18.96
2019-05-10T19:21:43.251Z,18.90
2019-05-10T19:24:11.053Z,18.80
2019-05-10T19:26:37.625Z,18.82
2019-05-10T19:29:07.197Z,18.68
2019-05-10T19:31:37.941Z,18.54
2019-05-10T19:34:09.127Z,18.47
2019-05-10T19:36:33.688Z,18.42
2019-05-10T19:39:01.889Z,18.27
2019-05-10T19:41:30.907Z,18.27
2019-05-10T19:44:02.360Z,18.30
2019-05-10T19:46:38.638Z,18.21
2019-05-10T19:49:01.410Z,18.00
2019-05-10T19:51:31.709Z,17.80
2019-05-10T19:53:59.629Z,17.52
2019-05-10T19:56:30.124Z,17.45
2019-05-10T19:59:05.527Z,17.49
2019-05-10T20:01:38.286Z,17.45
2019-05-10T20:04:04.786Z,17.48
2019-05-10T20:06:31.334Z,17.47
2019-05-10T20:08:57.949Z,17.37
2019-05-10T20:11:24.793Z,17.40
2019-05-10T20:19:09.508Z,16.92
2019-05-10T20:21:36.337Z,17.06
2019-05-10T20:24:13.265Z,17.32
2019-05-10T20:26:42.059Z,17.70
2019-05-10T20:29:10.725Z,17.76
2019-05-10T20:31:37.271Z,17.66
2019-05-10T20:34:07.469Z,17.35
2019-05-10T20:36:36.044Z,17.27
2019-05-10T20:39:04.876Z,17.39
2019-05-10T20:41:31.399Z,17.33
2019-05-10T20:43:58.030Z,17.35
2019-05-10T20:46:24.691Z,17.58
2019-05-10T20:48:51.207Z,17.42
2019-05-10T20:51:17.752Z,17.32
2019-05-10T20:53:47.866Z,17.23
2019-05-10T20:56:15.386Z,17.10
2019-05-10T20:58:42.022Z,17.31
2019-05-10T21:01:08.787Z,17.34
2019-05-10T21:03:35.488Z,17.16
2019-05-10T21:06:02.120Z,17.02
2019-05-10T21:08:28.764Z,16.97
2019-05-10T21:10:55.655Z,16.91
2019-05-10T21:13:22.544Z,16.86
2019-05-10T21:15:49.343Z,16.78
2019-05-10T21:18:15.976Z,16.73
2019-05-10T21:20:42.447Z,16.75
2019-05-10T21:23:09.465Z,16.87
2019-05-10T21:25:36.078Z,16.92
2019-05-10T21:28:02.923Z,16.91
2019-05-10T21:33:01.331Z,16.77
2019-05-10T21:35:27.914Z,16.56
2019-05-10T21:37:54.542Z,16.67
2019-05-10T21:40:21.372Z,16.70
2019-05-10T21:42:48.300Z,16.65
2019-05-10T21:45:14.930Z,16.63
2019-05-10T21:47:51.333Z,16.58
2019-05-10T21:50:10.214Z,16.60
2019-05-10T21:52:36.935Z,16.71
2019-05-10T21:55:03.743Z,16.65
2019-05-10T21:57:30.238Z,16.46
2019-05-10T21:59:56.872Z,16.45
2019-05-10T22:02:23.497Z,16.41
2019-05-10T22:04:50.393Z,16.29
2019-05-10T22:07:17.485Z,16.10
2019-05-10T22:09:45.070Z,16.21
2019-05-10T22:12:11.735Z,16.37
2019-05-10T22:14:38.423Z,16.35
2019-05-10T22:17:05.305Z,16.23
2019-05-10T22:19:32.096Z,16.43
2019-05-10T22:21:59.359Z,16.47
2019-05-10T22:24:26.326Z,16.41
2019-05-10T22:26:52.931Z,16.33
2019-05-10T22:29:19.537Z,16.32
2019-05-10T22:31:46.211Z,16.34
2019-05-10T22:34:12.984Z,16.24
2019-05-10T22:36:39.751Z,16.11
2019-05-10T22:39:07.880Z,16.00
2019-05-10T22:41:34.604Z,16.00
2019-05-10T22:44:03.766Z,16.00
2019-05-10T22:46:32.477Z,15.92
2019-05-10T22:48:59.316Z,15.91
2019-05-10T22:51:26.067Z,15.89
2019-05-10T22:53:59.498Z,15.90
2019-05-10T22:56:21.026Z,15.89
2019-05-10T22:58:47.645Z,15.93
2019-05-10T23:01:15.799Z,16.00
2019-05-10T23:03:42.400Z,15.92
2019-05-10T23:06:09.608Z,15.67
2019-05-10T23:08:39.271Z,15.58
2019-05-10T23:11:06.823Z,15.45
2019-05-10T23:13:34.880Z,15.42
2019-05-10T23:16:03.766Z,15.46
2019-05-10T23:18:29.855Z,15.36
2019-05-10T23:20:58.545Z,15.10
2019-05-10T23:23:26.152Z,15.14
2019-05-10T23:25:52.854Z,15.04
2019-05-10T23:28:19.437Z,15.06
2019-05-10T23:30:49.181Z,15.17
2019-05-10T23:33:16.044Z,15.17
2019-05-10T23:35:44.157Z,15.30
2019-05-10T23:38:10.855Z,15.59
2019-05-10T23:40:40.206Z,15.85
2019-05-10T23:43:08.295Z,15.89
2019-05-10T23:45:37.283Z,15.97
2019-05-10T23:48:05.725Z,15.94
2019-05-10T23:50:32.560Z,15.79
2019-05-10T23:53:01.762Z,15.54
2019-05-10T23:55:28.585Z,15.41
2019-05-10T23:57:57.248Z,15.27
